Time;durP1;ratioP1;P1;durP2;ratioP2;P2;SDS_P1;SDS_P2;PMS_P1;PMS_P2;Temp;Humidity;BMP_temperature;BMP_pressure;BME280_temperature;BME280_humidity;BME280_pressure;Samples;Min_cycle;Max_cycle;Signal;HPM_P1;HPM_P2
2022/02/01 00:02:05;;;;;;;0.00;0.00;;;;;22.10;100108.00;;;;5085296;28;20081;-76
2022/02/01 00:04:55;;;;;;;0.00;0.00;;;;;22.10;100103.00;;;;5084987;28;20040;-76
2022/02/01 00:10:23;;;;;;;0.00;0.00;;;;;22.00;100103.00;;;;5085312;28;20047;-76
2022/02/01 00:35:05;;;;;;;;;;;;;;;;;;;;;
2022/02/01 00:37:19;;;;;;;0.00;0.00;;;;;21.80;100146.00;;;;5089207;28;21064;-77
2022/02/01 00:39:55;;;;;;;0.00;0.00;;;;;21.80;100155.00;;;;5088706;28;20624;-76
2022/02/01 00:42:25;;;;;;;0.00;0.00;;;;;22.00;100152.00;;;;5088035;28;20044;-77
2022/02/01 00:44:55;;;;;;;0.00;0.00;;;;;22.10;100153.00;;;;5089532;28;20043;-77
2022/02/01 00:47:24;;;;;;;0.00;0.00;;;;;22.30;100139.00;;;;5088860;28;20127;-76
2022/02/01 00:49:53;;;;;;;0.20;0.20;;;;;22.30;100131.00;;;;5085447;28;20048;-76
2022/02/01 00:52:25;;;;;;;0.00;0.00;;;;;22.50;100150.00;;;;5085651;28;20051;-76
2022/02/01 00:54:55;;;;;;;0.00;0.00;;;;;22.60;100144.00;;;;5087453;28;20114;-78
2022/02/01 00:57:24;;;;;;;0.00;0.00;;;;;22.50;100166.00;;;;5089337;28;20616;-77
2022/02/01 00:59:54;;;;;;;0.00;0.00;;;;;22.40;100173.00;;;;5087963;28;20036;-75
2022/02/01 01:02:23;;;;;;;0.00;0.00;;;;;22.40;100169.00;;;;5081059;28;20051;-79
2022/02/01 01:04:53;;;;;;;0.00;0.00;;;;;22.40;100183.00;;;;5088926;28;20120;-78
2022/02/01 01:07:23;;;;;;;0.00;0.00;;;;;22.40;100174.00;;;;5088271;28;20028;-76
2022/02/01 01:09:55;;;;;;;0.00;0.00;;;;;22.30;100174.00;;;;5088749;28;20403;-78
2022/02/01 01:12:26;;;;;;;0.00;0.00;;;;;22.40;100167.00;;;;5068903;28;20622;-79
2022/02/01 01:15:12;;;;;;;0.88;0.55;;;;;22.40;100189.00;;;;5068565;28;20043;-79
2022/02/01 01:53:54;;;;;;;0.00;0.00;;;;;21.80;100242.00;;;;5088908;28;20506;-77
2022/02/01 01:56:24;;;;;;;0.00;0.00;;;;;21.80;100235.00;;;;5089103;28;20083;-76
2022/02/01 01:58:54;;;;;;;0.00;0.00;;;;;21.70;100227.00;;;;5087628;28;20051;-77
2022/02/01 02:01:23;;;;;;;0.00;0.00;;;;;21.60;100230.00;;;;5088185;28;20046;-78
2022/02/01 02:03:53;;;;;;;0.00;0.00;;;;;21.50;100225.00;;;;5088711;28;20147;-78
2022/02/01 02:06:23;;;;;;;0.00;0.00;;;;;21.60;100220.00;;;;5089546;28;20078;-77
2022/02/01 02:08:55;;;;;;;0.00;0.00;;;;;21.50;100242.00;;;;5088425;28;20059;-77
2022/02/01 02:11:38;;;;;;;0.00;0.00;;;;;21.70;100228.00;;;;5088791;28;20445;-77
2022/02/01 02:14:25;;;;;;;0.00;0.00;;;;;21.80;100232.00;;;;5088521;28;20529;-77
2022/02/01 02:17:00;;;;;;;0.05;0.05;;;;;22.00;100243.00;;;;5088434;28;20036;-77
2022/02/01 02:19:33;;;;;;;0.00;0.00;;;;;22.00;100231.00;;;;5088819;28;20044;-78
2022/02/01 02:22:07;;;;;;;0.00;0.00;;;;;22.00;100232.00;;;;5088429;28;20064;-79
2022/02/01 02:24:41;;;;;;;0.00;0.00;;;;;22.00;100232.00;;;;5086841;28;20040;-76
2022/02/01 02:27:11;;;;;;;0.00;0.00;;;;;22.10;100225.00;;;;5088619;28;20089;-78
2022/02/01 02:29:40;;;;;;;0.00;0.00;;;;;21.90;100218.00;;;;5088683;28;20036;-78
2022/02/01 02:32:10;;;;;;;0.00;0.00;;;;;21.70;100238.00;;;;5088173;28;20087;-79
2022/02/01 02:34:39;;;;;;;0.00;0.00;;;;;21.60;100235.00;;;;5087738;28;20055;-78
2022/02/01 02:37:15;;;;;;;0.00;0.00;;;;;21.50;100232.00;;;;5088225;28;20048;-77
2022/02/01 02:40:09;;;;;;;0.00;0.00;;;;;21.60;100258.00;;;;5087863;28;20051;-78
2022/02/01 02:45:26;;;;;;;0.00;0.00;;;;;21.80;100253.00;;;;5087599;28;20388;-76
2022/02/01 02:47:55;;;;;;;0.00;0.00;;;;;21.80;100256.00;;;;5086802;28;20036;-77
2022/02/01 02:50:25;;;;;;;0.00;0.00;;;;;21.80;100256.00;;;;5087318;28;20055;-78
2022/02/01 02:52:55;;;;;;;0.00;0.00;;;;;21.90;100276.00;;;;5087863;28;20522;-77
2022/02/01 02:55:24;;;;;;;0.00;0.00;;;;;21.90;100259.00;;;;5087639;28;20051;-78
2022/02/01 02:57:54;;;;;;;0.00;0.00;;;;;21.90;100268.00;;;;5087538;28;20056;-77
2022/02/01 03:00:23;;;;;;;0.00;0.00;;;;;21.80;100283.00;;;;5087819;28;20048;-77
2022/02/01 03:02:54;;;;;;;0.00;0.00;;;;;21.80;100270.00;;;;5087586;28;20048;-77
2022/02/01 03:05:24;;;;;;;0.00;0.00;;;;;21.80;100284.00;;;;5087445;28;20132;-77
2022/02/01 03:07:55;;;;;;;0.00;0.00;;;;;21.80;100288.00;;;;5085559;28;20044;-77
2022/02/01 03:10:26;;;;;;;0.00;0.00;;;;;21.80;100282.00;;;;5088016;28;20081;-78
2022/02/01 03:20:48;;;;;;;0.00;0.00;;;;;21.80;100287.00;;;;5088136;28;20085;-80
2022/02/01 03:23:18;;;;;;;0.00;0.00;;;;;21.70;100291.00;;;;5087246;28;20418;-79
2022/02/01 03:25:47;;;;;;;0.00;0.00;;;;;21.70;100288.00;;;;5087056;28;20055;-80
2022/02/01 03:28:17;;;;;;;0.00;0.00;;;;;21.60;100287.00;;;;5087263;28;20044;-77
2022/02/01 03:30:46;;;;;;;0.65;0.52;;;;;21.60;100293.00;;;;5086883;28;20040;-77
2022/02/01 03:33:16;;;;;;;0.00;0.00;;;;;21.60;100293.00;;;;5087653;28;20058;-80
2022/02/01 03:35:45;;;;;;;0.00;0.00;;;;;21.50;100277.00;;;;5087497;28;20054;-77
2022/02/01 03:38:15;;;;;;;0.00;0.00;;;;;21.50;100280.00;;;;5085589;28;20051;-76
2022/02/01 03:40:44;;;;;;;0.00;0.00;;;;;21.50;100272.00;;;;5087247;28;20067;-77
2022/02/01 03:43:13;;;;;;;0.00;0.00;;;;;21.50;100275.00;;;;5087029;28;20781;-78
2022/02/01 03:45:43;;;;;;;0.00;0.00;;;;;21.50;100267.00;;;;5087404;28;20040;-82
2022/02/01 03:48:12;;;;;;;0.00;0.00;;;;;21.50;100280.00;;;;5087189;28;20040;-78
2022/02/01 03:50:43;;;;;;;0.00;0.00;;;;;21.50;100265.00;;;;5086726;28;20052;-77
2022/02/01 03:53:13;;;;;;;0.00;0.00;;;;;21.50;100270.00;;;;5086605;28;20130;-77
2022/02/01 03:55:42;;;;;;;0.22;0.20;;;;;21.50;100270.00;;;;5086839;28;20043;-76
2022/02/01 03:58:12;;;;;;;0.00;0.00;;;;;21.50;100262.00;;;;5086363;28;20530;-77
2022/02/01 04:00:41;;;;;;;0.00;0.00;;;;;21.40;100270.00;;;;5086722;28;20058;-78
2022/02/01 04:03:11;;;;;;;0.00;0.00;;;;;21.40;100257.00;;;;5085693;28;20048;-79
2022/02/01 04:05:40;;;;;;;0.00;0.00;;;;;21.40;100262.00;;;;5086704;28;20036;-78
2022/02/01 04:08:12;;;;;;;0.00;0.00;;;;;21.40;100249.00;;;;5086448;28;20044;-79
2022/02/01 04:10:43;;;;;;;0.00;0.00;;;;;21.40;100262.00;;;;5085136;28;20056;-78
2022/02/01 04:13:12;;;;;;;0.00;0.00;;;;;21.30;100254.00;;;;5086620;28;20050;-79
2022/02/01 04:15:42;;;;;;;0.00;0.00;;;;;21.40;100262.00;;;;5086742;28;20113;-76
2022/02/01 04:18:12;;;;;;;0.00;0.00;;;;;21.30;100244.00;;;;5086125;28;20056;-80
2022/02/01 04:20:41;;;;;;;0.00;0.00;;;;;21.30;100241.00;;;;5086149;28;20048;-78
2022/02/01 04:23:11;;;;;;;0.00;0.00;;;;;21.30;100240.00;;;;5085795;28;20044;-79
2022/02/01 04:25:41;;;;;;;0.00;0.00;;;;;21.30;100231.00;;;;5086711;28;20058;-76
2022/02/01 04:28:18;;;;;;;0.10;0.10;;;;;21.20;100223.00;;;;5086559;28;20044;-78
2022/02/01 04:30:47;;;;;;;0.00;0.00;;;;;21.30;100240.00;;;;5087021;28;20531;-78
2022/02/01 04:33:17;;;;;;;0.00;0.00;;;;;21.20;100223.00;;;;5086401;28;20032;-80
2022/02/01 04:35:46;;;;;;;0.00;0.00;;;;;21.30;100243.00;;;;5086451;28;20052;-77
2022/02/01 04:38:16;;;;;;;0.00;0.00;;;;;21.30;100239.00;;;;5085977;28;20048;-79
2022/02/01 04:40:51;;;;;;;0.00;0.00;;;;;21.30;100223.00;;;;5086359;28;20047;-80
2022/02/01 04:43:22;;;;;;;0.00;0.00;;;;;21.30;100233.00;;;;5086424;28;20051;-77
2022/02/01 04:45:51;;;;;;;4.88;4.57;;;;;21.40;100234.00;;;;5086147;28;20036;-77
2022/02/01 04:48:21;;;;;;;0.00;0.00;;;;;21.30;100230.00;;;;5085872;28;20093;-77
2022/02/01 04:50:50;;;;;;;0.00;0.00;;;;;21.30;100229.00;;;;5086256;28;20048;-79
2022/02/01 04:53:19;;;;;;;0.00;0.00;;;;;21.20;100247.00;;;;5086237;28;20530;-78
2022/02/01 04:55:55;;;;;;;0.00;0.00;;;;;21.20;100226.00;;;;5086267;28;20044;-79
2022/02/01 04:58:25;;;;;;;0.00;0.00;;;;;21.20;100231.00;;;;5085355;28;20044;-79
2022/02/01 05:00:55;;;;;;;0.00;0.00;;;;;21.10;100225.00;;;;5086338;28;20173;-79
2022/02/01 05:03:25;;;;;;;0.00;0.00;;;;;21.10;100226.00;;;;5087064;28;20074;-78
2022/02/01 05:05:56;;;;;;;0.00;0.00;;;;;21.10;100222.00;;;;5086377;28;20055;-77
2022/02/01 05:08:26;;;;;;;0.00;0.00;;;;;21.10;100222.00;;;;5086114;28;20130;-76
2022/02/01 05:10:56;;;;;;;0.00;0.00;;;;;21.00;100235.00;;;;5086102;28;20044;-76
2022/02/01 05:14:00;;;;;;;0.00;0.00;;;;;20.90;100239.00;;;;5088847;28;20048;-78
2022/02/01 05:16:23;;;;;;;0.00;0.00;;;;;21.00;100247.00;;;;5089733;28;20068;-76
2022/02/01 05:19:03;;;;;;;0.00;0.00;;;;;20.90;100257.00;;;;5089370;28;20040;-78
2022/02/01 05:21:36;;;;;;;0.00;0.00;;;;;20.80;100262.00;;;;5089728;28;20044;-77
2022/02/01 05:24:10;;;;;;;0.00;0.00;;;;;20.80;100272.00;;;;5090007;28;20040;-77
2022/02/01 05:26:39;;;;;;;0.00;0.00;;;;;20.70;100259.00;;;;5089916;28;20040;-76
2022/02/01 05:29:09;;;;;;;0.00;0.00;;;;;20.60;100262.00;;;;5089170;28;20044;-78
2022/02/01 05:31:39;;;;;;;0.00;0.00;;;;;20.60;100246.00;;;;5090143;28;20138;-76
2022/02/01 05:34:09;;;;;;;0.00;0.00;;;;;20.70;100259.00;;;;5089776;28;20044;-77
2022/02/01 05:36:38;;;;;;;0.00;0.00;;;;;20.70;100256.00;;;;5089580;28;20044;-76
2022/02/01 05:39:22;;;;;;;0.00;0.00;;;;;20.70;100259.00;;;;5089027;28;20510;-77
2022/02/01 05:41:54;;;;;;;0.00;0.00;;;;;20.60;100252.00;;;;5089491;28;20400;-76
2022/02/01 05:44:24;;;;;;;0.00;0.00;;;;;20.50;100247.00;;;;5089097;28;20068;-77
2022/02/01 05:46:53;;;;;;;0.00;0.00;;;;;20.40;100249.00;;;;5089666;28;20048;-77
2022/02/01 05:49:23;;;;;;;0.00;0.00;;;;;20.40;100242.00;;;;5087317;28;20059;-79
2022/02/01 05:51:52;;;;;;;0.00;0.00;;;;;20.50;100237.00;;;;5088717;28;20036;-77
2022/02/01 05:54:25;;;;;;;0.00;0.00;;;;;20.60;100261.00;;;;5087715;28;20063;-77
2022/02/01 05:56:54;;;;;;;0.00;0.00;;;;;20.60;100261.00;;;;5086018;28;20051;-78
2022/02/01 05:59:25;;;;;;;0.00;0.00;;;;;20.70;100251.00;;;;5087549;28;20078;-77
2022/02/01 06:01:55;;;;;;;0.00;0.00;;;;;20.80;100258.00;;;;5088128;28;20076;-78
2022/02/01 06:04:26;;;;;;;0.00;0.00;;;;;20.80;100246.00;;;;5089198;28;20043;-78
2022/02/01 06:06:55;;;;;;;0.00;0.00;;;;;20.90;100261.00;;;;5088759;28;20040;-77
2022/02/01 06:09:25;;;;;;;0.00;0.00;;;;;21.00;100260.00;;;;5087828;28;20052;-78
2022/02/01 06:11:54;;;;;;;0.00;0.00;;;;;21.10;100263.00;;;;5088977;28;20071;-77
2022/02/01 06:14:24;;;;;;;0.00;0.00;;;;;21.10;100252.00;;;;5088943;28;20460;-77
2022/02/01 06:16:53;;;;;;;0.00;0.00;;;;;21.10;100230.00;;;;5088764;28;20623;-77
2022/02/01 06:19:23;;;;;;;0.00;0.00;;;;;21.10;100259.00;;;;5088330;28;20101;-79
2022/02/01 06:21:52;;;;;;;0.00;0.00;;;;;21.10;100259.00;;;;5089396;28;20510;-78
2022/02/01 06:24:22;;;;;;;0.00;0.00;;;;;21.10;100247.00;;;;5089202;28;20051;-78
2022/02/01 06:26:51;;;;;;;0.00;0.00;;;;;21.00;100263.00;;;;5087695;28;20047;-77
2022/02/01 06:29:21;;;;;;;0.00;0.00;;;;;21.10;100252.00;;;;5088379;28;20329;-77
2022/02/01 06:31:50;;;;;;;0.00;0.00;;;;;21.10;100254.00;;;;5088954;28;20047;-77
2022/02/01 06:34:19;;;;;;;0.00;0.00;;;;;21.10;100255.00;;;;5088589;28;20043;-77
2022/02/01 06:36:49;;;;;;;0.00;0.00;;;;;21.10;100267.00;;;;5087554;28;20499;-78
2022/02/01 06:39:20;;;;;;;0.00;0.00;;;;;21.10;100267.00;;;;5088348;28;20040;-79
2022/02/01 06:41:50;;;;;;;0.00;0.00;;;;;21.10;100252.00;;;;5088484;28;20055;-78
2022/02/01 06:44:20;;;;;;;0.00;0.00;;;;;21.10;100261.00;;;;5089198;28;20036;-76
2022/02/01 06:46:49;;;;;;;0.00;0.00;;;;;21.10;100251.00;;;;5088639;28;20040;-78
2022/02/01 06:49:19;;;;;;;0.00;0.00;;;;;21.00;100254.00;;;;5088521;28;20036;-79
2022/02/01 06:51:48;;;;;;;0.00;0.00;;;;;20.90;100269.00;;;;5087184;28;20161;-79
2022/02/01 06:54:19;;;;;;;0.00;0.00;;;;;20.90;100272.00;;;;5087839;28;20048;-77
2022/02/01 06:56:48;;;;;;;0.00;0.00;;;;;20.90;100281.00;;;;5086620;28;20282;-76
2022/02/01 06:59:22;;;;;;;0.00;0.00;;;;;20.90;100281.00;;;;5086317;28;20060;-77
2022/02/01 07:01:51;;;;;;;0.00;0.00;;;;;20.90;100264.00;;;;5088244;28;20051;-77
2022/02/01 07:04:21;;;;;;;0.00;0.00;;;;;21.00;100267.00;;;;5088714;28;20075;-78
2022/02/01 07:06:50;;;;;;;0.00;0.00;;;;;20.90;100268.00;;;;5087881;28;20059;-78
2022/02/01 07:09:21;;;;;;;0.00;0.00;;;;;20.90;100277.00;;;;5088548;28;20056;-77
2022/02/01 07:11:52;;;;;;;0.00;0.00;;;;;20.80;100259.00;;;;5087563;28;20411;-79
2022/02/01 07:14:21;;;;;;;0.00;0.00;;;;;20.70;100260.00;;;;5087907;28;20090;-77
2022/02/01 07:16:50;;;;;;;0.00;0.00;;;;;20.60;100260.00;;;;5087665;28;20129;-78
2022/02/01 07:19:20;;;;;;;0.00;0.00;;;;;20.50;100261.00;;;;5087349;28;20079;-77
2022/02/01 07:21:50;;;;;;;0.00;0.00;;;;;20.40;100249.00;;;;5087800;28;20036;-78
2022/02/01 07:24:27;;;;;;;0.00;0.00;;;;;20.30;100261.00;;;;5087363;28;20044;-78
2022/02/01 07:26:58;;;;;;;0.00;0.00;;;;;20.20;100260.00;;;;5088068;28;20059;-77
2022/02/01 07:29:28;;;;;;;9.63;9.07;;;;;20.20;100275.00;;;;5087278;28;20085;-78
2022/02/01 07:31:58;;;;;;;0.00;0.00;;;;;20.20;100281.00;;;;5087426;28;20051;-78
2022/02/01 07:34:27;;;;;;;0.00;0.00;;;;;20.20;100268.00;;;;5085957;28;20047;-78
2022/02/01 07:36:56;;;;;;;0.00;0.00;;;;;20.30;100275.00;;;;5086753;28;20093;-79
2022/02/01 07:39:26;;;;;;;0.00;0.00;;;;;20.40;100277.00;;;;5087300;28;20044;-77
2022/02/01 07:41:55;;;;;;;0.00;0.00;;;;;20.40;100260.00;;;;5087644;28;20597;-79
2022/02/01 07:44:24;;;;;;;0.00;0.00;;;;;20.40;100267.00;;;;5087404;28;20444;-77
2022/02/01 07:46:56;;;;;;;0.00;0.00;;;;;20.40;100268.00;;;;5087204;28;20528;-79
2022/02/01 07:49:26;;;;;;;0.00;0.00;;;;;20.50;100266.00;;;;5087527;28;20075;-79
2022/02/01 07:51:56;;;;;;;0.00;0.00;;;;;20.50;100274.00;;;;5087141;28;20177;-78
2022/02/01 07:54:25;;;;;;;0.00;0.00;;;;;20.60;100281.00;;;;5087534;28;20052;-77
2022/02/01 07:56:55;;;;;;;0.00;0.00;;;;;20.50;100276.00;;;;5085975;28;20746;-76
2022/02/01 07:59:24;;;;;;;0.00;0.00;;;;;20.60;100274.00;;;;5087442;28;20036;-77
2022/02/01 08:01:53;;;;;;;0.00;0.00;;;;;20.60;100283.00;;;;5087319;28;20044;-77
2022/02/01 08:04:23;;;;;;;0.00;0.00;;;;;20.50;100274.00;;;;5087454;28;20044;-77
2022/02/01 08:06:53;;;;;;;0.00;0.00;;;;;20.50;100274.00;;;;5087609;28;20105;-78
2022/02/01 08:09:26;;;;;;;0.00;0.00;;;;;20.60;100292.00;;;;5087052;28;20450;-77
2022/02/01 08:11:56;;;;;;;0.00;0.00;;;;;20.70;100285.00;;;;5086724;28;20040;-79
2022/02/01 08:15:16;;;;;;;0.00;0.00;;;;;20.70;100286.00;;;;5087204;28;20122;-76
2022/02/01 08:17:46;;;;;;;0.00;0.00;;;;;20.70;100285.00;;;;5087564;28;20071;-78
2022/02/01 08:20:21;;;;;;;0.00;0.00;;;;;20.70;100279.00;;;;5086775;28;20048;-78
2022/02/01 08:23:02;;;;;;;0.00;0.00;;;;;20.70;100288.00;;;;5086661;28;20118;-77
2022/02/01 08:25:33;;;;;;;0.00;0.00;;;;;20.70;100276.00;;;;5086869;28;20036;-77
2022/02/01 08:28:04;;;;;;;0.00;0.00;;;;;20.80;100269.00;;;;5087592;28;20044;-78
2022/02/01 08:30:34;;;;;;;0.00;0.00;;;;;20.70;100278.00;;;;5087158;28;20290;-76
2022/02/01 08:33:04;;;;;;;0.00;0.00;;;;;20.60;100278.00;;;;5086163;28;20042;-78
2022/02/01 08:35:35;;;;;;;0.00;0.00;;;;;20.60;100284.00;;;;5086990;28;20051;-79
2022/02/01 08:38:20;;;;;;;0.00;0.00;;;;;20.60;100286.00;;;;5086957;28;20051;-76
2022/02/01 08:40:50;;;;;;;0.00;0.00;;;;;20.60;100281.00;;;;5087025;28;20052;-77
2022/02/01 08:43:20;;;;;;;0.00;0.00;;;;;20.60;100291.00;;;;5086759;28;20127;-78
2022/02/01 08:45:49;;;;;;;0.00;0.00;;;;;20.60;100311.00;;;;5086940;28;20040;-77
2022/02/01 08:48:19;;;;;;;0.00;0.00;;;;;20.70;100293.00;;;;5088840;28;20044;-77
2022/02/01 08:50:50;;;;;;;0.00;0.00;;;;;20.70;100303.00;;;;5091140;28;20098;-77
2022/02/01 08:53:24;;;;;;;0.00;0.00;;;;;20.70;100312.00;;;;5090843;28;20047;-78
2022/02/01 08:58:24;;;;;;;0.00;0.00;;;;;20.80;100298.00;;;;5089766;28;20055;-78
2022/02/01 09:00:54;;;;;;;;;;;;;20.80;100310.00;;;;5090468;28;20055;-78
2022/02/01 09:03:25;;;;;;;0.00;0.00;;;;;20.90;100313.00;;;;5090776;28;19952;-76
2022/02/01 09:05:55;;;;;;;0.00;0.00;;;;;20.90;100306.00;;;;5090750;28;20048;-78
2022/02/01 09:08:25;;;;;;;0.00;0.00;;;;;20.90;100315.00;;;;5089576;28;20290;-78
2022/02/01 09:10:54;;;;;;;0.00;0.00;;;;;21.00;100321.00;;;;5090199;28;20058;-78
2022/02/01 09:13:24;;;;;;;0.00;0.00;;;;;21.00;100321.00;;;;5089951;28;20040;-78
2022/02/01 09:15:53;;;;;;;0.00;0.00;;;;;21.10;100325.00;;;;5089078;28;20507;-77
2022/02/01 09:18:23;;;;;;;0.00;0.00;;;;;21.10;100344.00;;;;5090089;28;20055;-77
2022/02/01 09:20:53;;;;;;;0.00;0.00;;;;;21.20;100345.00;;;;5088278;28;20052;-77
2022/02/01 09:23:23;;;;;;;0.00;0.00;;;;;21.20;100347.00;;;;5089869;28;20036;-77
2022/02/01 09:25:53;;;;;;;0.00;0.00;;;;;21.20;100337.00;;;;5090209;28;20044;-79
2022/02/01 09:28:22;;;;;;;0.00;0.00;;;;;21.30;100331.00;;;;5090324;28;20156;-77
2022/02/01 09:30:54;;;;;;;0.00;0.00;;;;;21.40;100342.00;;;;5090094;28;20044;-77
2022/02/01 09:33:24;;;;;;;0.00;0.00;;;;;21.40;100354.00;;;;5089814;28;20048;-77
2022/02/01 09:35:53;;;;;;;0.00;0.00;;;;;21.50;100359.00;;;;5089396;28;20564;-76
2022/02/01 09:38:24;;;;;;;0.00;0.00;;;;;21.60;100353.00;;;;5089884;28;20425;-76
2022/02/01 09:40:53;;;;;;;0.00;0.00;;;;;21.60;100344.00;;;;5089348;28;20063;-78
2022/02/01 09:43:22;;;;;;;0.00;0.00;;;;;21.90;100350.00;;;;5090523;28;20051;-78
2022/02/01 09:45:56;;;;;;;0.00;0.00;;;;;22.10;100352.00;;;;5089293;28;20043;-77
2022/02/01 09:48:46;;;;;;;0.00;0.00;;;;;22.30;100348.00;;;;5089997;28;20068;-77
2022/02/01 09:51:16;;;;;;;0.00;0.00;;;;;22.40;100360.00;;;;5090322;28;20498;-78
2022/02/01 09:54:03;;;;;;;0.00;0.00;;;;;22.60;100360.00;;;;5089782;28;20043;-78
2022/02/01 09:56:33;;;;;;;0.00;0.00;;;;;22.80;100356.00;;;;5088709;28;20091;-78
2022/02/01 09:59:32;;;;;;;0.00;0.00;;;;;22.80;100369.00;;;;5088363;28;20048;-78
2022/02/01 10:02:13;;;;;;;0.00;0.00;;;;;22.90;100360.00;;;;5089435;28;20193;-76
2022/02/01 10:04:43;;;;;;;0.00;0.00;;;;;22.80;100380.00;;;;5088553;28;20428;-78
2022/02/01 10:07:14;;;;;;;0.00;0.00;;;;;22.90;100372.00;;;;5089266;28;20074;-76
2022/02/01 10:09:50;;;;;;;;;;;;;22.90;100382.00;;;;5088625;28;20048;-76
2022/02/01 10:12:20;;;;;;;0.00;0.00;;;;;22.90;100373.00;;;;5089371;28;19924;-76
2022/02/01 10:14:56;;;;;;;0.00;0.00;;;;;22.90;100379.00;;;;5089353;28;20036;-77
2022/02/01 10:17:28;;;;;;;0.00;0.00;;;;;23.10;100388.00;;;;5088211;28;20525;-78
2022/02/01 10:19:58;;;;;;;0.00;0.00;;;;;23.10;100381.00;;;;5088703;28;20040;-78
2022/02/01 10:22:33;;;;;;;0.00;0.00;;;;;23.20;100397.00;;;;5088595;28;20519;-78
2022/02/01 10:25:30;;;;;;;0.00;0.00;;;;;23.10;100398.00;;;;5088635;28;20048;-79
2022/02/01 10:28:02;;;;;;;0.00;0.00;;;;;23.20;100407.00;;;;5088835;28;20503;-76
2022/02/01 10:30:50;;;;;;;0.00;0.00;;;;;23.40;100399.00;;;;5088227;28;20044;-78
2022/02/01 10:36:15;;;;;;;0.00;0.00;;;;;23.50;100402.00;;;;5088792;28;20036;-76
2022/02/01 10:38:45;;;;;;;0.00;0.00;;;;;23.60;100389.00;;;;5087957;28;20040;-77
2022/02/01 10:41:15;;;;;;;0.00;0.00;;;;;23.70;100404.00;;;;5087943;28;20102;-76
2022/02/01 10:43:50;;;;;;;0.00;0.00;;;;;23.80;100399.00;;;;5088091;28;20047;-76
2022/02/01 10:46:23;;;;;;;0.00;0.00;;;;;23.90;100399.00;;;;5087700;28;20223;-77
2022/02/01 10:48:53;;;;;;;0.00;0.00;;;;;24.40;100367.00;;;;5087962;28;20507;-77
2022/02/01 10:51:25;;;;;;;0.00;0.00;;;;;26.00;100383.00;;;;5087644;28;20290;-78
2022/02/01 10:53:56;;;;;;;0.00;0.00;;;;;28.10;100216.00;;;;5087809;28;20075;-78
2022/02/01 10:56:26;;;;;;;0.00;0.00;;;;;26.90;100389.00;;;;5087474;28;20061;-77
2022/02/01 10:58:55;;;;;;;0.00;0.00;;;;;25.30;100411.00;;;;5087748;28;20597;-77
2022/02/01 11:01:26;;;;;;;0.00;0.00;;;;;24.60;100421.00;;;;5086670;28;20545;-77
2022/02/01 11:04:02;;;;;;;0.00;0.00;;;;;24.10;100419.00;;;;5087667;28;20434;-80
2022/02/01 11:06:34;;;;;;;0.00;0.00;;;;;23.80;100402.00;;;;5087305;28;20039;-79
2022/02/01 11:09:04;;;;;;;0.00;0.00;;;;;23.60;100412.00;;;;5087556;28;20165;-80
2022/02/01 11:11:35;;;;;;;0.00;0.00;;;;;23.50;100423.00;;;;5086191;28;20131;-77
2022/02/01 11:14:04;;;;;;;0.00;0.00;;;;;23.60;100411.00;;;;5087691;28;20039;-78
2022/02/01 11:16:39;;;;;;;0.00;0.00;;;;;23.60;100420.00;;;;5087087;28;20487;-79
2022/02/01 11:19:21;;;;;;;0.00;0.00;;;;;23.70;100425.00;;;;5085856;28;20075;-77
2022/02/01 11:21:56;;;;;;;0.00;0.00;;;;;24.10;100435.00;;;;5086707;28;20136;-77
2022/02/01 11:24:33;;;;;;;0.00;0.00;;;;;24.50;100395.00;;;;5087311;28;20040;-79
2022/02/01 11:27:19;;;;;;;0.00;0.00;;;;;28.90;100198.00;;;;5085712;28;20056;-76
2022/02/01 11:32:35;;;;;;;0.00;0.00;;;;;27.60;100425.00;;;;5087008;28;20040;-77
2022/02/01 11:35:14;;;;;;;0.00;0.00;;;;;26.10;100422.00;;;;5086476;28;20122;-79
2022/02/01 11:38:05;;;;;;;0.00;0.00;;;;;25.30;100424.00;;;;5085152;28;20040;-79
2022/02/01 11:40:46;;;;;;;0.00;0.00;;;;;25.50;100426.00;;;;5085680;28;20044;-80
2022/02/01 11:43:37;;;;;;;0.00;0.00;;;;;25.60;100426.00;;;;5086979;28;20090;-77
2022/02/01 11:46:10;;;;;;;0.00;0.00;;;;;25.40;100409.00;;;;5087087;28;20058;-79
2022/02/01 11:48:49;;;;;;;0.00;0.00;;;;;25.40;100428.00;;;;5086561;28;20032;-78
2022/02/01 11:51:26;;;;;;;0.00;0.00;;;;;25.30;100431.00;;;;5086448;28;20036;-80
2022/02/01 11:53:58;;;;;;;0.00;0.00;;;;;25.60;100422.00;;;;5087330;28;20054;-79
2022/02/01 11:56:40;;;;;;;0.20;0.00;;;;;25.60;100428.00;;;;5086334;28;20036;-77
2022/02/01 11:59:17;;;;;;;0.00;0.00;;;;;25.60;100432.00;;;;5086824;28;20095;-78
2022/02/01 12:01:47;;;;;;;0.00;0.00;;;;;25.90;100430.00;;;;5086472;28;20051;-79
2022/02/01 12:04:18;;;;;;;0.00;0.00;;;;;26.60;100280.00;;;;5086369;28;20393;-79
2022/02/01 12:06:58;;;;;;;0.00;0.00;;;;;29.20;100231.00;;;;5085931;28;20121;-77
2022/02/01 12:09:29;;;;;;;0.00;0.00;;;;;28.10;100437.00;;;;5087101;28;20491;-80
2022/02/01 12:12:00;;;;;;;0.00;0.00;;;;;27.00;100437.00;;;;5085585;28;20124;-79
2022/02/01 12:14:30;;;;;;;0.00;0.00;;;;;26.60;100429.00;;;;5085905;28;20405;-79
2022/02/01 12:16:59;;;;;;;0.00;0.00;;;;;26.60;100445.00;;;;5086392;28;20048;-79
2022/02/01 12:19:40;;;;;;;0.00;0.00;;;;;26.40;100439.00;;;;5086728;28;20072;-78
2022/02/01 12:22:58;;;;;;;0.00;0.00;;;;;26.20;100446.00;;;;5089815;28;20044;-79
2022/02/01 12:25:29;;;;;;;0.00;0.00;;;;;26.30;100431.00;;;;5070427;28;20062;-78
2022/02/01 12:27:59;;;;;;;0.00;0.00;;;;;26.80;100436.00;;;;5090709;28;20086;-78
2022/02/01 12:30:28;;;;;;;0.00;0.00;;;;;26.70;100447.00;;;;5090921;28;20118;-77
2022/02/01 12:32:59;;;;;;;0.00;0.00;;;;;26.50;100443.00;;;;5091679;28;20071;-78
2022/02/01 12:35:36;;;;;;;0.00;0.00;;;;;26.60;100438.00;;;;5092123;28;20032;-77
2022/02/01 12:38:12;;;;;;;0.00;0.00;;;;;26.50;100444.00;;;;5091664;28;20044;-77
2022/02/01 12:40:42;;;;;;;0.17;0.05;;;;;26.30;100457.00;;;;5090569;28;20735;-80
2022/02/01 12:43:20;;;;;;;0.00;0.00;;;;;26.20;100452.00;;;;5091183;28;20044;-79
2022/02/01 12:46:32;;;;;;;0.00;0.00;;;;;26.40;100445.00;;;;5089449;28;20114;-79
2022/02/01 12:49:49;;;;;;;0.00;0.00;;;;;28.50;100345.00;;;;5089911;28;20044;-78
2022/02/01 12:52:27;;;;;;;0.00;0.00;;;;;30.10;100352.00;;;;5090651;28;20036;-78
2022/02/01 12:55:06;;;;;;;0.00;0.00;;;;;30.60;100365.00;;;;5090571;28;20040;-79
2022/02/01 12:58:04;;;;;;;0.00;0.00;;;;;30.20;100456.00;;;;5088349;28;20131;-81
2022/02/01 13:00:35;;;;;;;0.00;0.00;;;;;28.80;100445.00;;;;5089845;28;20048;-77
2022/02/01 13:03:06;;;;;;;0.27;0.23;;;;;28.30;100450.00;;;;5088185;28;20090;-79
2022/02/01 13:05:36;;;;;;;0.00;0.00;;;;;28.80;100381.00;;;;5090019;28;20348;-83
2022/02/01 13:14:26;;;;;;;0.00;0.00;;;;;27.20;100464.00;;;;5090277;28;20098;-81
2022/02/01 13:16:47;;;;;;;0.00;0.00;;;;;27.10;100448.00;;;;5090395;28;20046;-81
2022/02/01 13:22:54;;;;;;;0.00;0.00;;;;;29.80;100363.00;;;;5061337;28;20519;-79
2022/02/01 13:25:47;;;;;;;0.00;0.00;;;;;30.60;100369.00;;;;5070525;28;20053;-80
2022/02/01 13:28:16;;;;;;;0.00;0.00;;;;;30.90;100455.00;;;;5069905;28;20098;-79
2022/02/01 13:30:46;;;;;;;0.00;0.00;;;;;30.80;100380.00;;;;5069341;28;20090;-79
2022/02/01 13:33:18;;;;;;;0.00;0.00;;;;;31.60;100370.00;;;;5068253;28;20045;-77
2022/02/01 13:35:55;;;;;;;0.00;0.00;;;;;31.30;100372.00;;;;5069431;28;20060;-82
2022/02/01 13:38:28;;;;;;;0.00;0.00;;;;;31.10;100374.00;;;;5070614;28;20507;-78
2022/02/01 13:41:08;;;;;;;0.75;0.45;;;;;30.60;100382.00;;;;5069352;28;20495;-77
2022/02/01 13:43:47;;;;;;;0.00;0.00;;;;;30.50;100399.00;;;;5070642;28;20116;-80
2022/02/01 13:46:26;;;;;;;0.00;0.00;;;;;31.20;100381.00;;;;5069449;28;20039;-79
2022/02/01 13:49:03;;;;;;;0.00;0.00;;;;;31.60;100370.00;;;;5070475;28;20045;-82
2022/02/01 13:51:52;;;;;;;0.00;0.00;;;;;30.40;100451.00;;;;5068645;28;20053;-79
2022/02/01 13:54:23;;;;;;;0.00;0.00;;;;;29.00;100450.00;;;;5067513;28;20377;-79
2022/02/01 13:56:54;;;;;;;0.00;0.00;;;;;28.20;100444.00;;;;5069385;28;20048;-78
2022/02/01 13:59:29;;;;;;;0.00;0.00;;;;;29.10;100446.00;;;;5068929;28;20037;-78
2022/02/01 14:02:09;;;;;;;0.00;0.00;;;;;28.60;100449.00;;;;5069087;28;20063;-75
2022/02/01 14:04:58;;;;;;;0.00;0.00;;;;;28.90;100460.00;;;;5069319;28;20071;-77
2022/02/01 14:07:52;;;;;;;0.00;0.00;;;;;28.20;100452.00;;;;5069232;28;20032;-77
2022/02/01 14:10:47;;;;;;;0.00;0.00;;;;;28.00;100460.00;;;;5068594;28;20052;-79